createdAt,value
2023-01-10T00:02:10.302Z,90.80
2023-01-10T00:07:12.431Z,90.80
2023-01-10T00:12:15.942Z,90.80
2023-01-10T00:17:18.124Z,90.90
2023-01-10T00:22:20.298Z,91.20
2023-01-10T00:27:23.815Z,91.00
2023-01-10T00:32:25.929Z,91.10
2023-01-10T00:37:27.998Z,91.10
2023-01-10T00:42:31.547Z,91.10
2023-01-10T00:47:33.855Z,91.00
2023-01-10T00:52:39.084Z,91.40
2023-01-10T00:57:42.623Z,91.10
2023-01-10T01:02:44.966Z,91.10
2023-01-10T01:07:49.056Z,91.10
2023-01-10T01:12:53.057Z,91.00
2023-01-10T01:17:55.741Z,90.90
2023-01-10T01:22:58.048Z,90.80
2023-01-10T01:28:01.719Z,90.90
2023-01-10T01:33:03.880Z,91.00
2023-01-10T01:38:06.394Z,91.10
2023-01-10T01:43:23.089Z,91.10
2023-01-10T01:48:31.052Z,91.30
2023-01-10T01:53:40.071Z,91.20
2023-01-10T01:58:49.203Z,91.20
2023-01-10T02:03:57.941Z,91.20
2023-01-10T02:09:08.413Z,91.10
2023-01-10T02:14:14.631Z,91.10
2023-01-10T02:19:25.062Z,90.90
2023-01-10T02:25:09.532Z,90.90
2023-01-10T02:30:57.392Z,90.90
2023-01-10T02:36:20.042Z,90.80
2023-01-10T02:41:30.096Z,90.70
2023-01-10T02:46:34.120Z,90.70
2023-01-10T02:51:37.739Z,90.70
2023-01-10T02:57:10.259Z,90.70
2023-01-10T03:02:22.597Z,90.90
2023-01-10T03:07:33.960Z,90.80
2023-01-10T03:12:41.766Z,90.80
2023-01-10T03:17:48.042Z,90.80
2023-01-10T03:22:52.958Z,90.90
2023-01-10T03:28:00.537Z,90.90
2023-01-10T03:33:04.815Z,90.90
2023-01-10T03:38:15.896Z,91.00
2023-01-10T03:43:22.111Z,91.20
2023-01-10T03:48:28.669Z,91.20
2023-01-10T03:53:33.123Z,91.40
2023-01-10T03:58:35.341Z,91.20
2023-01-10T04:03:37.477Z,91.00
2023-01-10T04:08:40.980Z,91.10
2023-01-10T04:13:43.089Z,91.20
2023-01-10T04:18:45.163Z,91.30
2023-01-10T04:23:48.666Z,91.40
2023-01-10T04:28:50.785Z,91.50
2023-01-10T04:33:52.945Z,91.40
2023-01-10T04:38:59.660Z,91.40
2023-01-10T04:44:01.808Z,91.40
2023-01-10T04:49:03.982Z,91.40
2023-01-10T04:54:07.471Z,91.70
2023-01-10T04:59:10.524Z,91.30
2023-01-10T05:04:12.905Z,91.20
2023-01-10T05:09:16.443Z,91.20
2023-01-10T05:14:18.508Z,91.10
2023-01-10T05:19:20.610Z,91.00
2023-01-10T05:24:24.220Z,90.90
2023-01-10T05:29:26.327Z,91.00
2023-01-10T05:34:28.741Z,91.40
2023-01-10T05:39:32.282Z,91.10
2023-01-10T05:44:34.384Z,91.00
2023-01-10T05:49:36.476Z,91.00
2023-01-10T05:54:40.055Z,90.90
2023-01-10T05:59:42.275Z,90.80
2023-01-10T06:04:44.391Z,90.80
2023-01-10T06:09:47.920Z,90.90
2023-01-10T06:14:50.045Z,91.00
2023-01-10T06:19:52.139Z,91.00
2023-01-10T06:24:55.783Z,91.10
2023-01-10T06:29:57.954Z,91.20
2023-01-10T06:35:00.182Z,91.10
2023-01-10T06:40:04.140Z,91.10
2023-01-10T06:45:07.076Z,91.10
2023-01-10T06:50:11.450Z,91.20
2023-01-10T06:55:15.202Z,91.20
2023-01-10T07:00:18.588Z,91.20
2023-01-10T07:05:20.877Z,91.20
2023-01-10T07:10:24.537Z,91.20
2023-01-10T07:15:27.055Z,91.30
2023-01-10T07:20:29.218Z,91.30
2023-01-10T07:25:32.795Z,91.40
2023-01-10T07:30:34.969Z,91.90
2023-01-10T07:35:37.067Z,91.50
2023-01-10T07:40:40.570Z,91.50
2023-01-10T07:45:42.786Z,91.30
2023-01-10T07:50:45.028Z,91.60
2023-01-10T07:55:48.820Z,91.20
2023-01-10T08:06:02.369Z,91.30
2023-01-10T08:11:06.471Z,91.50
2023-01-10T08:16:09.086Z,91.50
2023-01-10T08:21:11.292Z,91.50
2023-01-10T08:26:14.910Z,91.50
2023-01-10T08:31:17.063Z,91.60
2023-01-10T08:36:20.712Z,91.60
2023-01-10T08:41:24.307Z,91.70
2023-01-10T08:46:26.689Z,91.60
2023-01-10T08:51:29.097Z,91.60
2023-01-10T08:56:32.651Z,91.60
2023-01-10T09:01:35.394Z,91.60
2023-01-10T09:06:38.171Z,91.50
2023-01-10T09:11:42.015Z,91.40
2023-01-10T09:16:44.174Z,91.50
2023-01-10T09:21:46.272Z,91.60
2023-01-10T09:26:49.828Z,91.50
2023-01-10T09:31:51.923Z,91.50
2023-01-10T09:36:54.282Z,91.50
2023-01-10T09:42:14.109Z,91.50
2023-01-10T09:47:24.692Z,91.50
2023-01-10T09:52:30.989Z,91.50
2023-01-10T09:57:35.668Z,91.50
2023-01-10T10:02:43.623Z,91.50
2023-01-10T10:07:51.310Z,91.50
2023-01-10T10:13:09.627Z,91.40
2023-01-10T10:18:25.358Z,91.40
2023-01-10T10:23:39.120Z,91.40
2023-01-10T10:29:06.332Z,91.40
2023-01-10T10:34:17.571Z,91.50
2023-01-10T10:39:23.852Z,91.50
2023-01-10T10:44:36.430Z,91.60
2023-01-10T10:49:43.576Z,91.40
2023-01-10T10:54:47.693Z,91.30
2023-01-10T10:59:52.206Z,91.20
2023-01-10T11:04:58.214Z,91.00
2023-01-10T11:10:02.500Z,90.80
2023-01-10T11:15:07.348Z,90.50
2023-01-10T11:20:16.877Z,90.40
2023-01-10T11:25:21.767Z,90.30
2023-01-10T11:30:28.156Z,90.20
2023-01-10T11:35:32.668Z,90.20
2023-01-10T11:40:36.057Z,90.20
2023-01-10T11:45:40.063Z,90.20
2023-01-10T11:50:48.548Z,90.10
2023-01-10T11:55:50.794Z,90.00
2023-01-10T12:00:54.459Z,90.00
2023-01-10T12:05:59.867Z,90.00
2023-01-10T12:11:05.494Z,90.10
2023-01-10T12:16:21.779Z,90.10
2023-01-10T12:21:34.569Z,90.00
2023-01-10T12:26:36.873Z,90.10
2023-01-10T12:31:41.602Z,90.20
2023-01-10T12:36:55.067Z,90.10
2023-01-10T12:42:11.927Z,90.00
2023-01-10T12:47:25.080Z,90.00
2023-01-10T12:52:37.659Z,89.90
2023-01-10T12:57:42.215Z,89.70
2023-01-10T13:02:47.961Z,89.50
2023-01-10T13:07:52.987Z,89.60
2023-01-10T13:12:59.728Z,89.60
2023-01-10T13:18:17.920Z,89.50
2023-01-10T13:23:24.393Z,89.40
2023-01-10T13:28:28.577Z,89.50
2023-01-10T13:33:34.021Z,89.60
2023-01-10T13:38:45.341Z,89.10
2023-01-10T13:44:03.733Z,89.00
2023-01-10T13:49:39.859Z,89.00
2023-01-10T13:54:56.622Z,88.80
2023-01-10T14:00:05.423Z,88.60
2023-01-10T14:05:15.780Z,88.90
2023-01-10T14:10:25.508Z,89.60
2023-01-10T14:15:29.978Z,88.70
2023-01-10T14:20:34.314Z,88.70
2023-01-10T14:25:39.228Z,88.60
2023-01-10T14:30:41.728Z,88.80
2023-01-10T14:35:47.011Z,88.70
2023-01-10T14:40:55.380Z,88.50
2023-01-10T14:46:03.383Z,88.60
2023-01-10T14:51:21.605Z,88.60
2023-01-10T14:56:27.419Z,88.30
2023-01-10T15:01:30.601Z,88.50
2023-01-10T15:06:52.387Z,88.50
2023-01-10T15:12:00.668Z,88.50
2023-01-10T15:17:06.526Z,88.60
2023-01-10T15:22:26.349Z,88.60
2023-01-10T15:27:31.153Z,88.60
2023-01-10T15:32:35.876Z,88.60
2023-01-10T15:37:39.668Z,88.70
2023-01-10T15:42:43.361Z,88.70
2023-01-10T15:47:52.224Z,88.90
2023-01-10T15:52:57.231Z,88.80
2023-01-10T15:58:00.882Z,88.80
2023-01-10T16:03:13.084Z,88.80
2023-01-10T16:08:23.577Z,88.90
2023-01-10T16:13:27.828Z,89.00
2023-01-10T16:18:30.106Z,89.00
2023-01-10T16:23:34.638Z,89.00
2023-01-10T16:28:38.232Z,88.80
2023-01-10T16:33:40.405Z,88.80
2023-01-10T16:38:42.996Z,88.90
2023-01-10T16:43:47.759Z,88.90
2023-01-10T16:48:50.380Z,88.80
2023-01-10T16:53:52.495Z,88.80
2023-01-10T16:58:56.374Z,89.00
2023-01-10T17:03:58.972Z,89.10
2023-01-10T17:09:01.174Z,90.00
2023-01-10T17:14:04.832Z,89.80
2023-01-10T17:19:08.070Z,90.00
2023-01-10T17:24:11.391Z,90.20
2023-01-10T17:29:15.053Z,90.30
2023-01-10T17:34:17.167Z,90.50
2023-01-10T17:39:19.313Z,90.90
2023-01-10T17:44:23.891Z,90.60
2023-01-10T17:49:26.146Z,90.80
2023-01-10T17:54:28.580Z,90.90
2023-01-10T17:59:33.138Z,90.90
2023-01-10T18:04:35.399Z,91.00
2023-01-10T18:09:37.557Z,91.10
2023-01-10T18:14:41.242Z,91.20
2023-01-10T18:19:43.477Z,91.20
2023-01-10T18:24:45.649Z,91.50
2023-01-10T18:29:49.455Z,91.40
2023-01-10T18:34:51.892Z,91.40
2023-01-10T18:39:54.061Z,91.60
2023-01-10T18:44:57.581Z,91.70
2023-01-10T18:49:59.824Z,91.80
2023-01-10T18:55:02.541Z,91.90
2023-01-10T19:00:07.453Z,91.90
2023-01-10T19:05:09.824Z,91.90
2023-01-10T19:10:12.011Z,91.90
2023-01-10T19:15:15.550Z,92.00
2023-01-10T19:20:18.105Z,92.10
2023-01-10T19:25:20.323Z,92.30
2023-01-10T19:30:24.065Z,92.30
2023-01-10T19:35:26.335Z,92.30
2023-01-10T19:40:28.451Z,92.50
2023-01-10T19:45:33.000Z,92.50
2023-01-10T19:50:35.625Z,92.70
2023-01-10T19:55:37.778Z,92.80
2023-01-10T20:00:41.332Z,92.90
2023-01-10T20:05:43.546Z,93.00
2023-01-10T20:10:45.642Z,93.20
2023-01-10T20:15:49.210Z,93.30
2023-01-10T20:20:51.354Z,93.30
2023-01-10T20:25:57.913Z,93.40
2023-01-10T20:31:02.434Z,93.50
2023-01-10T20:36:07.755Z,93.50
2023-01-10T20:41:13.239Z,93.60
2023-01-10T20:46:20.135Z,93.70
2023-01-10T20:51:25.041Z,93.70
2023-01-10T20:56:29.006Z,93.70
2023-01-10T21:01:35.374Z,93.80
2023-01-10T21:06:38.026Z,93.80
2023-01-10T21:11:57.590Z,93.90
2023-01-10T21:17:03.692Z,93.90
2023-01-10T21:22:05.813Z,93.90
2023-01-10T21:27:07.897Z,93.90
2023-01-10T21:32:11.407Z,93.90
2023-01-10T21:37:13.615Z,93.90
2023-01-10T21:42:15.756Z,94.00
2023-01-10T21:47:19.299Z,94.10
2023-01-10T21:52:21.448Z,94.00
2023-01-10T21:57:23.611Z,94.00
2023-01-10T22:02:29.245Z,94.10
2023-01-10T22:07:34.616Z,94.20
2023-01-10T22:12:36.794Z,94.20
2023-01-10T22:17:40.488Z,94.20
2023-01-10T22:22:42.634Z,94.20
2023-01-10T22:27:45.285Z,94.10
2023-01-10T22:32:49.034Z,94.10
2023-01-10T22:37:54.269Z,94.10
2023-01-10T22:42:56.321Z,94.10
2023-01-10T22:48:00.041Z,94.10
2023-01-10T22:53:02.903Z,94.10
2023-01-10T22:58:04.975Z,94.10
2023-01-10T23:03:08.500Z,94.20
2023-01-10T23:08:10.846Z,94.20
2023-01-10T23:13:15.135Z,94.30
2023-01-10T23:18:19.570Z,94.20
2023-01-10T23:23:21.827Z,94.20
2023-01-10T23:28:23.970Z,94.20
2023-01-10T23:33:27.490Z,94.20
2023-01-10T23:38:29.857Z,94.20
2023-01-10T23:43:32.399Z,94.30
2023-01-10T23:48:36.424Z,94.30
2023-01-10T23:53:38.661Z,94.30
2023-01-10T23:58:41.474Z,94.30
